createdAt,value
2019-05-16T00:00:23.060Z,19.17
2019-05-16T00:02:52.310Z,18.37
2019-05-16T00:05:21.636Z,27.73
2019-05-16T00:07:50.897Z,27.67
2019-05-16T00:10:20.210Z,31.53
2019-05-16T00:12:49.448Z,18.37
2019-05-16T00:15:18.780Z,18.40
2019-05-16T00:17:48.867Z,25.77
2019-05-16T00:20:19.038Z,25.80
2019-05-16T00:22:48.672Z,61.40
2019-05-16T00:25:18.102Z,52.13
2019-05-16T00:27:47.991Z,25.37
2019-05-16T00:30:18.140Z,17.27
2019-05-16T00:32:48.131Z,18.67
2019-05-16T00:35:18.186Z,37.83
2019-05-16T00:37:48.412Z,45.23
2019-05-16T00:40:18.794Z,68.30
2019-05-16T00:42:49.171Z,55.20
2019-05-16T00:45:18.846Z,31.33
2019-05-16T00:47:48.273Z,25.77
2019-05-16T00:50:18.442Z,14.20
2019-05-16T00:52:48.697Z,18.50
2019-05-16T00:55:18.413Z,16.07
2019-05-16T00:57:49.251Z,15.33
2019-05-16T01:00:29.163Z,22.17
2019-05-16T01:02:58.412Z,24.00
2019-05-16T01:05:28.439Z,30.33
2019-05-16T01:07:58.478Z,30.10
2019-05-16T01:10:29.551Z,15.53
2019-05-16T01:12:58.713Z,14.37
2019-05-16T01:15:28.781Z,12.70
2019-05-16T01:17:58.851Z,10.70
2019-05-16T01:20:28.330Z,11.47
2019-05-16T01:22:58.147Z,15.43
2019-05-16T01:25:28.251Z,15.53
2019-05-16T01:27:58.277Z,14.03
2019-05-16T01:30:28.651Z,13.77
2019-05-16T01:32:58.341Z,10.50
2019-05-16T01:35:27.968Z,11.40
2019-05-16T01:37:58.089Z,7.87
2019-05-16T01:40:28.111Z,10.03
2019-05-16T01:42:57.855Z,11.00
2019-05-16T01:45:27.810Z,10.90
2019-05-16T01:47:58.731Z,10.67
2019-05-16T01:50:28.396Z,10.73
2019-05-16T01:52:57.959Z,12.20
2019-05-16T01:55:28.554Z,10.30
2019-05-16T01:57:58.457Z,11.10
2019-05-16T02:00:35.681Z,11.40
2019-05-16T02:02:58.825Z,11.80
2019-05-16T02:05:28.098Z,62.77
2019-05-16T02:07:58.398Z,19.00
2019-05-16T02:10:28.444Z,18.13
2019-05-16T02:12:58.183Z,14.67
2019-05-16T02:15:28.614Z,11.20
2019-05-16T02:17:58.726Z,9.67
2019-05-16T02:20:28.341Z,10.30
2019-05-16T02:22:58.534Z,11.47
2019-05-16T02:25:28.110Z,11.53
2019-05-16T02:27:58.971Z,11.33
2019-05-16T02:30:31.266Z,10.97
2019-05-16T02:33:01.046Z,12.17
2019-05-16T02:35:31.186Z,10.40
2019-05-16T02:38:01.178Z,11.73
2019-05-16T02:40:31.421Z,10.63
2019-05-16T02:43:01.921Z,11.20
2019-05-16T02:45:32.575Z,9.73
2019-05-16T02:48:02.228Z,12.47
2019-05-16T02:50:31.967Z,15.57
2019-05-16T02:53:01.749Z,11.97
2019-05-16T02:55:31.155Z,10.93
2019-05-16T02:58:01.123Z,12.23
2019-05-16T03:00:35.779Z,10.37
2019-05-16T03:03:06.517Z,11.17
2019-05-16T03:05:35.861Z,10.93
2019-05-16T03:08:05.732Z,11.73
2019-05-16T03:10:35.739Z,10.10
2019-05-16T03:13:04.995Z,9.90
2019-05-16T03:15:34.331Z,11.97
2019-05-16T03:18:04.581Z,12.17
2019-05-16T03:20:35.106Z,13.00
2019-05-16T03:23:04.394Z,12.80
2019-05-16T03:25:33.715Z,11.53
2019-05-16T03:28:03.022Z,23.67
2019-05-16T03:30:35.079Z,11.10
2019-05-16T03:33:05.860Z,9.70
2019-05-16T03:35:35.377Z,28.33
2019-05-16T03:38:05.768Z,34.40
2019-05-16T03:40:37.630Z,14.47
2019-05-16T03:43:06.878Z,12.33
2019-05-16T03:45:36.144Z,14.00
2019-05-16T03:48:05.470Z,14.57
2019-05-16T03:50:34.717Z,11.53
2019-05-16T03:53:04.085Z,11.27
2019-05-16T03:55:33.370Z,15.77
2019-05-16T03:58:02.599Z,11.97
2019-05-16T04:00:55.232Z,8.30
2019-05-16T04:03:28.409Z,9.00
2019-05-16T04:05:55.819Z,7.90
2019-05-16T04:08:25.825Z,14.30
2019-05-16T04:10:55.296Z,12.27
2019-05-16T04:13:24.524Z,17.67
2019-05-16T04:15:53.766Z,9.00
2019-05-16T04:18:23.115Z,11.87
2019-05-16T04:20:53.051Z,10.63
2019-05-16T04:23:22.491Z,12.87
2019-05-16T04:25:52.629Z,5.67
2019-05-16T04:28:23.032Z,6.33
2019-05-16T04:30:52.676Z,5.20
2019-05-16T04:33:22.582Z,3.90
2019-05-16T04:35:53.081Z,3.87
2019-05-16T04:38:34.957Z,4.70
2019-05-16T04:40:53.860Z,5.83
2019-05-16T04:43:23.176Z,7.80
2019-05-16T04:45:52.988Z,5.00
2019-05-16T04:48:23.121Z,19.80
2019-05-16T04:50:52.804Z,14.47
2019-05-16T04:53:22.404Z,12.50
2019-05-16T04:55:52.349Z,12.00
2019-05-16T04:58:23.692Z,11.63
2019-05-16T05:00:53.020Z,9.90
2019-05-16T05:03:22.563Z,8.23
2019-05-16T05:05:52.142Z,10.37
2019-05-16T05:08:22.463Z,8.10
2019-05-16T05:10:52.305Z,7.73
2019-05-16T05:13:22.635Z,10.87
2019-05-16T05:15:52.157Z,5.87
2019-05-16T05:18:21.807Z,6.80
2019-05-16T05:20:52.765Z,6.33
2019-05-16T05:23:22.310Z,9.13
2019-05-16T05:25:51.846Z,9.00
2019-05-16T05:28:21.561Z,31.43
2019-05-16T05:30:51.010Z,9.83
2019-05-16T05:33:21.368Z,6.40
2019-05-16T05:35:51.168Z,5.97
2019-05-16T05:38:21.570Z,6.50
2019-05-16T05:40:51.695Z,8.33
2019-05-16T05:43:21.863Z,10.30
2019-05-16T05:45:51.750Z,7.83
2019-05-16T05:48:21.834Z,7.73
2019-05-16T05:50:51.685Z,8.57
2019-05-16T05:53:21.238Z,7.77
2019-05-16T05:55:51.506Z,7.53
2019-05-16T05:58:21.430Z,11.40
2019-05-16T06:00:52.553Z,10.60
2019-05-16T06:03:23.035Z,8.77
2019-05-16T06:05:52.565Z,11.50
2019-05-16T06:08:21.800Z,8.13
2019-05-16T06:10:51.027Z,8.43
2019-05-16T06:13:20.944Z,7.23
2019-05-16T06:15:51.224Z,6.53
2019-05-16T06:18:20.797Z,6.60
2019-05-16T06:20:51.198Z,7.23
2019-05-16T06:23:21.153Z,6.30
2019-05-16T06:25:51.153Z,6.60
2019-05-16T06:28:21.229Z,6.33
2019-05-16T06:30:51.376Z,8.13
2019-05-16T06:33:21.393Z,7.63
2019-05-16T06:35:51.322Z,9.33
2019-05-16T06:38:21.404Z,9.30
2019-05-16T06:40:52.631Z,9.17
2019-05-16T06:43:21.867Z,10.97
2019-05-16T06:45:51.622Z,11.10
2019-05-16T06:48:21.623Z,10.10
2019-05-16T06:50:51.726Z,9.80
2019-05-16T06:53:21.314Z,10.27
2019-05-16T06:55:50.825Z,10.50
2019-05-16T06:58:22.279Z,10.37
2019-05-16T07:00:52.128Z,10.50
2019-05-16T07:03:22.014Z,10.90
2019-05-16T07:05:51.283Z,13.03
2019-05-16T07:08:21.046Z,13.73
2019-05-16T07:10:50.987Z,11.30
2019-05-16T07:13:20.425Z,12.10
2019-05-16T07:15:50.353Z,11.07
2019-05-16T07:18:20.998Z,9.20
2019-05-16T07:20:51.325Z,8.97
2019-05-16T07:23:21.275Z,8.63
2019-05-16T07:25:50.969Z,9.57
2019-05-16T07:28:21.046Z,9.57
2019-05-16T07:30:50.575Z,10.90
2019-05-16T07:33:21.165Z,15.60
2019-05-16T07:35:51.477Z,15.67
2019-05-16T07:38:21.000Z,15.20
2019-05-16T07:40:51.166Z,10.20
2019-05-16T07:43:20.976Z,10.73
2019-05-16T07:45:51.628Z,9.57
2019-05-16T07:48:21.938Z,11.60
2019-05-16T07:50:51.781Z,11.20
2019-05-16T07:53:21.645Z,9.60
2019-05-16T07:55:51.297Z,10.77
2019-05-16T07:58:21.760Z,11.50
2019-05-16T08:01:01.895Z,10.07
2019-05-16T08:03:22.318Z,10.10
2019-05-16T08:05:51.830Z,11.70
2019-05-16T08:08:24.356Z,10.03
2019-05-16T08:10:52.239Z,9.77
2019-05-16T08:13:21.512Z,14.83
2019-05-16T08:15:51.107Z,32.83
2019-05-16T08:18:21.605Z,9.27
2019-05-16T08:20:52.597Z,11.33
2019-05-16T08:23:22.802Z,14.47
2019-05-16T08:25:52.396Z,11.57
2019-05-16T08:28:22.098Z,9.80
2019-05-16T08:30:53.096Z,9.17
2019-05-16T08:33:22.774Z,9.67
2019-05-16T08:35:52.078Z,36.87
2019-05-16T08:38:21.925Z,14.67
2019-05-16T08:41:10.552Z,12.07
2019-05-16T08:43:22.318Z,11.20
2019-05-16T08:45:52.061Z,13.90
2019-05-16T08:48:23.390Z,10.23
2019-05-16T08:50:54.747Z,47.87
2019-05-16T08:53:23.689Z,18.20
2019-05-16T08:55:52.918Z,14.50
2019-05-16T08:58:23.643Z,11.67
2019-05-16T09:00:56.026Z,11.50
2019-05-16T09:03:23.832Z,15.47
2019-05-16T09:05:53.762Z,19.10
2019-05-16T09:08:23.209Z,10.93
2019-05-16T09:11:01.768Z,9.23
2019-05-16T09:13:23.434Z,9.10
2019-05-16T09:15:52.746Z,9.30
2019-05-16T09:18:21.981Z,9.17
2019-05-16T09:20:51.322Z,9.30
2019-05-16T09:23:20.641Z,7.70
2019-05-16T09:25:49.953Z,9.87
2019-05-16T09:28:19.193Z,7.67
2019-05-16T09:30:48.429Z,7.30
2019-05-16T09:33:17.961Z,9.40
2019-05-16T09:35:47.874Z,9.50
2019-05-16T09:38:22.895Z,6.93
2019-05-16T09:40:48.376Z,10.90
2019-05-16T09:43:18.178Z,9.83
2019-05-16T09:45:47.675Z,13.57
2019-05-16T09:48:18.851Z,10.13
2019-05-16T09:50:48.064Z,15.30
2019-05-16T09:53:17.473Z,8.93
2019-05-16T09:55:47.329Z,9.87
2019-05-16T09:58:18.270Z,12.67
2019-05-16T10:00:48.084Z,8.30
2019-05-16T10:03:21.927Z,10.87
2019-05-16T10:05:48.446Z,6.57
2019-05-16T10:08:17.696Z,5.33
2019-05-16T10:10:46.996Z,5.60
2019-05-16T10:13:18.291Z,5.07
2019-05-16T10:15:47.508Z,4.93
2019-05-16T10:18:17.143Z,6.20
2019-05-16T10:20:46.600Z,5.30
2019-05-16T10:23:18.102Z,5.77
2019-05-16T10:25:48.077Z,5.07
2019-05-16T10:28:20.006Z,4.63
2019-05-16T10:30:50.076Z,4.83
2019-05-16T10:33:19.644Z,6.83
2019-05-16T10:35:48.946Z,5.60
2019-05-16T10:38:18.417Z,5.07
2019-05-16T10:40:47.823Z,5.13
2019-05-16T10:43:17.405Z,5.83
2019-05-16T10:45:47.033Z,13.93
2019-05-16T10:48:17.594Z,6.40
2019-05-16T10:50:47.812Z,4.97
2019-05-16T10:53:33.618Z,5.50
2019-05-16T10:55:48.499Z,5.40
2019-05-16T10:58:34.943Z,5.27
2019-05-16T11:01:11.016Z,5.30
2019-05-16T11:03:19.807Z,6.13
2019-05-16T11:06:02.893Z,5.63
2019-05-16T11:08:19.956Z,5.33
2019-05-16T11:10:49.357Z,5.10
2019-05-16T11:13:20.260Z,5.33
2019-05-16T11:15:49.566Z,5.43
2019-05-16T11:18:19.153Z,5.20
2019-05-16T11:20:49.417Z,5.10
2019-05-16T11:23:23.181Z,5.40
2019-05-16T11:25:50.370Z,5.40
2019-05-16T11:28:19.669Z,14.53
2019-05-16T11:30:49.989Z,6.90
2019-05-16T11:33:19.535Z,5.80
2019-05-16T11:35:48.762Z,5.50
2019-05-16T11:38:18.102Z,6.03
2019-05-16T11:40:47.803Z,6.70
2019-05-16T11:43:21.050Z,5.90
2019-05-16T11:45:48.203Z,6.73
2019-05-16T11:48:17.490Z,5.67
2019-05-16T11:50:48.018Z,5.57
2019-05-16T11:53:17.742Z,5.67
2019-05-16T11:55:55.183Z,5.10
2019-05-16T11:58:18.373Z,5.20
2019-05-16T12:00:48.394Z,5.60
2019-05-16T12:03:17.984Z,5.90
2019-05-16T12:05:48.047Z,6.73
2019-05-16T12:08:18.273Z,5.90
2019-05-16T12:10:47.518Z,5.83
2019-05-16T12:13:27.482Z,6.20
2019-05-16T12:15:47.754Z,5.70
2019-05-16T12:18:17.472Z,5.70
2019-05-16T12:20:46.890Z,6.80
2019-05-16T12:23:17.191Z,7.00
2019-05-16T12:25:47.562Z,7.07
2019-05-16T12:28:17.209Z,6.27
2019-05-16T12:30:47.264Z,6.93
2019-05-16T12:33:18.769Z,6.73
2019-05-16T12:35:47.703Z,6.93
2019-05-16T12:38:17.369Z,6.37
2019-05-16T12:40:47.856Z,6.47
2019-05-16T12:43:18.031Z,7.10
2019-05-16T12:45:47.571Z,7.33
2019-05-16T12:48:20.211Z,7.00
2019-05-16T12:50:48.309Z,7.07
2019-05-16T12:53:18.118Z,7.20
2019-05-16T12:55:47.758Z,9.20
2019-05-16T12:58:24.955Z,8.17
2019-05-16T13:00:54.191Z,6.97
2019-05-16T13:03:19.291Z,7.23
2019-05-16T13:05:48.533Z,6.83
2019-05-16T13:08:17.791Z,7.50
2019-05-16T13:10:47.334Z,7.60
2019-05-16T13:13:17.645Z,7.60
2019-05-16T13:15:47.768Z,9.13
2019-05-16T13:18:17.290Z,8.03
2019-05-16T13:20:46.951Z,9.13
2019-05-16T13:23:18.174Z,8.60
2019-05-16T13:25:48.078Z,8.03
2019-05-16T13:28:18.054Z,8.37
2019-05-16T13:30:47.412Z,9.87
2019-05-16T13:33:17.803Z,9.57
2019-05-16T13:35:47.417Z,9.77
2019-05-16T13:38:17.614Z,9.37
2019-05-16T13:40:47.060Z,8.50
2019-05-16T13:43:17.463Z,8.20
2019-05-16T13:45:47.495Z,8.50
2019-05-16T13:48:17.339Z,8.70
2019-05-16T13:50:47.365Z,8.77
2019-05-16T13:53:16.981Z,9.80
2019-05-16T13:55:46.307Z,8.90
2019-05-16T13:58:17.889Z,12.63
2019-05-16T14:00:48.081Z,9.63
2019-05-16T14:03:18.077Z,10.23
2019-05-16T14:05:47.931Z,12.67
2019-05-16T14:08:17.433Z,16.80
2019-05-16T14:10:48.842Z,11.10
2019-05-16T14:13:17.763Z,17.70
2019-05-16T14:15:47.479Z,10.70
2019-05-16T14:18:17.633Z,9.73
2019-05-16T14:20:47.309Z,7.70
2019-05-16T14:23:17.653Z,7.80
2019-05-16T14:25:48.345Z,7.90
2019-05-16T14:28:17.920Z,7.93
2019-05-16T14:30:47.275Z,7.70
2019-05-16T14:33:17.185Z,8.43
2019-05-16T14:35:47.386Z,9.77
2019-05-16T14:38:17.632Z,10.40
2019-05-16T14:40:50.149Z,9.10
2019-05-16T14:43:18.023Z,8.07
2019-05-16T14:45:47.316Z,9.33
2019-05-16T14:48:18.390Z,7.77
2019-05-16T14:50:47.503Z,11.20
2019-05-16T14:53:17.932Z,8.93
2019-05-16T14:55:47.832Z,6.30
2019-05-16T14:58:17.263Z,9.03
2019-05-16T15:00:48.945Z,8.07
2019-05-16T15:03:18.111Z,6.53
2019-05-16T15:05:48.182Z,6.43
2019-05-16T15:08:18.232Z,6.80
2019-05-16T15:10:47.697Z,6.33
2019-05-16T15:13:17.549Z,5.10
2019-05-16T15:15:47.102Z,5.37
2019-05-16T15:18:17.653Z,6.13
2019-05-16T15:20:47.377Z,5.60
2019-05-16T15:23:17.598Z,6.63
2019-05-16T15:25:47.271Z,7.47
2019-05-16T15:28:17.281Z,9.17
2019-05-16T15:30:47.112Z,7.63
2019-05-16T15:33:19.709Z,6.80
2019-05-16T15:35:47.400Z,5.93
2019-05-16T15:38:16.879Z,7.10
2019-05-16T15:40:48.174Z,6.57
2019-05-16T15:43:18.531Z,5.80
2019-05-16T15:45:52.154Z,5.67
2019-05-16T15:48:19.014Z,5.50
2019-05-16T15:50:48.339Z,5.90
2019-05-16T15:53:17.769Z,5.53
2019-05-16T15:55:47.256Z,5.67
2019-05-16T15:58:18.123Z,5.33
2019-05-16T16:00:49.608Z,6.77
2019-05-16T16:03:19.148Z,5.27
2019-05-16T16:05:48.679Z,7.57
2019-05-16T16:08:18.583Z,7.53
2019-05-16T16:10:48.162Z,7.80
2019-05-16T16:13:19.982Z,8.53
2019-05-16T16:15:54.096Z,10.90
2019-05-16T16:18:21.721Z,9.00
2019-05-16T16:20:50.389Z,7.73
2019-05-16T16:23:19.739Z,8.90
2019-05-16T16:25:51.046Z,9.33
2019-05-16T16:28:19.943Z,9.57
2019-05-16T16:30:49.235Z,13.33
2019-05-16T16:33:25.301Z,9.73
2019-05-16T16:35:49.468Z,10.27
2019-05-16T16:38:18.721Z,10.30
2019-05-16T16:40:48.156Z,10.67
2019-05-16T16:43:17.570Z,11.07
2019-05-16T16:45:47.984Z,12.07
2019-05-16T16:48:17.595Z,14.87
2019-05-16T16:50:46.927Z,16.20
2019-05-16T16:53:17.658Z,10.57
2019-05-16T16:55:47.581Z,21.60
2019-05-16T16:58:17.703Z,10.17
2019-05-16T17:00:47.810Z,10.93
2019-05-16T17:03:17.873Z,12.37
2019-05-16T17:05:47.214Z,13.77
2019-05-16T17:08:16.958Z,14.90
2019-05-16T17:10:47.696Z,19.10
2019-05-16T17:13:17.144Z,18.40
2019-05-16T17:15:47.376Z,20.33
2019-05-16T17:18:17.457Z,26.17
2019-05-16T17:20:47.854Z,25.13
2019-05-16T17:23:17.525Z,26.77
2019-05-16T17:25:47.267Z,77.77
2019-05-16T17:28:17.430Z,43.43
2019-05-16T17:30:47.168Z,23.50
2019-05-16T17:33:18.312Z,24.40
2019-05-16T17:35:48.855Z,18.53
2019-05-16T17:38:18.408Z,14.33
2019-05-16T17:40:47.735Z,13.50
2019-05-16T17:43:17.058Z,16.37
2019-05-16T17:45:47.190Z,21.00
2019-05-16T17:48:17.722Z,21.73
2019-05-16T17:50:47.532Z,23.17
2019-05-16T17:53:17.522Z,24.07
2019-05-16T17:55:47.315Z,25.53
2019-05-16T17:58:17.787Z,21.17
2019-05-16T18:00:47.457Z,17.57
2019-05-16T18:03:17.533Z,15.97
2019-05-16T18:05:47.666Z,15.70
2019-05-16T18:08:17.324Z,15.33
2019-05-16T18:10:47.131Z,16.17
2019-05-16T18:13:16.782Z,16.93
2019-05-16T18:15:47.284Z,16.07
2019-05-16T18:18:17.691Z,17.17
2019-05-16T18:20:55.791Z,19.47
2019-05-16T18:23:18.352Z,24.07
2019-05-16T18:25:47.633Z,31.63
2019-05-16T18:28:17.540Z,32.10
2019-05-16T18:30:47.412Z,33.53
2019-05-16T18:33:16.849Z,32.60
2019-05-16T18:35:46.740Z,32.83
2019-05-16T18:38:16.225Z,32.13
2019-05-16T18:40:47.391Z,32.00
2019-05-16T18:43:16.734Z,37.97
2019-05-16T18:45:47.186Z,31.13
2019-05-16T18:48:16.654Z,35.53
2019-05-16T18:50:47.739Z,32.57
2019-05-16T18:53:17.847Z,32.77
2019-05-16T18:55:47.300Z,34.13
2019-05-16T18:58:17.939Z,31.47
2019-05-16T19:00:47.815Z,32.90
2019-05-16T19:03:17.089Z,29.23
2019-05-16T19:05:46.474Z,25.40
2019-05-16T19:08:16.367Z,27.07
2019-05-16T19:10:47.342Z,27.00
2019-05-16T19:13:16.899Z,19.83
2019-05-16T19:15:49.224Z,19.97
2019-05-16T19:18:17.699Z,18.67
2019-05-16T19:20:48.945Z,20.73
2019-05-16T19:23:18.017Z,18.40
2019-05-16T19:25:47.489Z,18.23
2019-05-16T19:28:16.847Z,17.40
2019-05-16T19:30:46.620Z,16.27
2019-05-16T19:33:17.541Z,19.37
2019-05-16T19:35:48.944Z,18.70
2019-05-16T19:38:18.183Z,19.33
2019-05-16T19:40:47.495Z,26.33
2019-05-16T19:43:17.489Z,23.83
2019-05-16T19:45:46.848Z,22.53
2019-05-16T19:48:17.474Z,25.13
2019-05-16T19:50:46.958Z,25.93
2019-05-16T19:53:16.586Z,24.23
2019-05-16T19:55:46.999Z,23.43
2019-05-16T19:58:16.601Z,24.70
2019-05-16T20:00:46.477Z,24.50
2019-05-16T20:03:16.663Z,28.00
2019-05-16T20:05:47.561Z,25.40
2019-05-16T20:08:17.606Z,23.67
2019-05-16T20:10:47.691Z,21.80
2019-05-16T20:13:17.126Z,24.80
2019-05-16T20:15:47.109Z,25.40
2019-05-16T20:18:18.527Z,27.30
2019-05-16T20:20:47.647Z,31.70
2019-05-16T20:23:18.758Z,25.77
2019-05-16T20:25:47.834Z,28.60
2019-05-16T20:28:18.474Z,28.83
2019-05-16T20:30:48.468Z,29.23
2019-05-16T20:33:18.195Z,33.07
2019-05-16T20:35:47.509Z,32.80
2019-05-16T20:38:17.330Z,31.67
2019-05-16T20:40:46.776Z,28.53
2019-05-16T20:43:16.859Z,30.13
2019-05-16T20:45:47.717Z,36.47
2019-05-16T20:48:18.610Z,42.30
2019-05-16T20:50:49.203Z,34.63
2019-05-16T20:53:18.859Z,32.73
2019-05-16T20:55:49.677Z,32.20
2019-05-16T20:58:19.278Z,35.93
2019-05-16T21:00:49.837Z,36.33
2019-05-16T21:03:20.050Z,31.37
2019-05-16T21:05:49.390Z,32.03
2019-05-16T21:08:18.707Z,33.10
2019-05-16T21:10:48.060Z,30.23
2019-05-16T21:13:17.411Z,26.73
2019-05-16T21:15:47.676Z,28.73
2019-05-16T21:18:17.015Z,28.23
2019-05-16T21:20:47.003Z,27.23
2019-05-16T21:23:19.385Z,26.00
2019-05-16T21:25:47.492Z,27.57
2019-05-16T21:28:19.850Z,26.40
2019-05-16T21:30:47.746Z,26.47
2019-05-16T21:33:18.619Z,29.33
2019-05-16T21:35:48.092Z,29.83
2019-05-16T21:38:17.806Z,29.23
2019-05-16T21:40:47.054Z,31.27
2019-05-16T21:43:16.878Z,28.63
2019-05-16T21:45:47.452Z,29.37
2019-05-16T21:48:19.334Z,31.07
2019-05-16T21:50:47.739Z,31.10
2019-05-16T21:53:17.713Z,31.03
2019-05-16T21:55:47.319Z,33.23
2019-05-16T21:58:16.703Z,32.33
2019-05-16T22:00:48.962Z,34.20
2019-05-16T22:03:18.513Z,32.87
2019-05-16T22:05:47.934Z,33.40
2019-05-16T22:08:17.294Z,30.63
2019-05-16T22:10:47.111Z,33.53
2019-05-16T22:13:16.439Z,34.23
2019-05-16T22:15:46.401Z,34.57
2019-05-16T22:18:16.560Z,33.50
2019-05-16T22:20:48.861Z,33.50
2019-05-16T22:23:17.468Z,33.80
2019-05-16T22:25:49.167Z,35.17
2019-05-16T22:28:17.837Z,36.20
2019-05-16T22:30:47.193Z,37.13
2019-05-16T22:33:17.898Z,36.50
2019-05-16T22:35:49.510Z,38.53
2019-05-16T22:38:18.324Z,38.57
2019-05-16T22:40:47.638Z,40.27
2019-05-16T22:43:17.396Z,40.57
2019-05-16T22:45:47.449Z,39.63
2019-05-16T22:48:17.312Z,39.63
2019-05-16T22:50:46.867Z,39.47
2019-05-16T22:53:17.243Z,41.10
2019-05-16T22:55:47.752Z,41.07
2019-05-16T22:58:17.246Z,40.03
2019-05-16T23:00:47.318Z,43.47
2019-05-16T23:03:17.357Z,40.97
2019-05-16T23:05:47.395Z,42.97
2019-05-16T23:08:16.956Z,42.00
2019-05-16T23:10:46.258Z,44.27
2019-05-16T23:13:16.948Z,44.83
2019-05-16T23:15:46.411Z,42.87
2019-05-16T23:18:17.220Z,46.67
2019-05-16T23:20:47.508Z,45.47
2019-05-16T23:23:17.377Z,45.57
2019-05-16T23:25:46.809Z,46.13
2019-05-16T23:28:16.728Z,45.70
2019-05-16T23:30:47.095Z,45.17
2019-05-16T23:33:16.539Z,44.13
2019-05-16T23:35:46.866Z,45.60
2019-05-16T23:38:19.831Z,49.60
2019-05-16T23:40:47.514Z,45.50
2019-05-16T23:43:16.756Z,51.03
2019-05-16T23:45:46.962Z,45.03
2019-05-16T23:48:16.526Z,47.57
2019-05-16T23:50:47.510Z,45.53
2019-05-16T23:53:16.894Z,45.53
2019-05-16T23:55:47.121Z,43.60
2019-05-16T23:58:16.660Z,43.83
